createdAt,value
2023-04-18T00:02:15.353Z,57.72
2023-04-18T00:04:46.160Z,57.87
2023-04-18T00:07:17.246Z,58.23
2023-04-18T00:09:45.615Z,58.42
2023-04-18T00:12:13.634Z,57.95
2023-04-18T00:14:41.936Z,57.99
2023-04-18T00:17:10.321Z,57.64
2023-04-18T00:19:43.241Z,56.83
2023-04-18T00:22:11.555Z,56.95
2023-04-18T00:24:41.242Z,57.39
2023-04-18T00:27:09.244Z,57.21
2023-04-18T00:29:37.616Z,57.51
2023-04-18T00:32:06.096Z,57.86
2023-04-18T00:34:34.444Z,58.19
2023-04-18T00:37:02.426Z,57.47
2023-04-18T00:39:30.665Z,56.88
2023-04-18T00:42:01.471Z,57.54
2023-04-18T00:44:29.738Z,57.40
2023-04-18T00:46:58.816Z,57.57
2023-04-18T00:49:27.996Z,57.60
2023-04-18T00:51:57.095Z,57.15
2023-04-18T00:54:25.548Z,56.55
2023-04-18T00:56:53.570Z,56.97
2023-04-18T00:59:23.245Z,57.03
2023-04-18T01:01:51.310Z,57.91
2023-04-18T01:04:19.692Z,57.48
2023-04-18T01:06:47.949Z,57.51
2023-04-18T01:09:16.361Z,57.66
2023-04-18T01:11:46.093Z,58.51
2023-04-18T01:14:14.539Z,58.29
2023-04-18T01:16:44.113Z,57.16
2023-04-18T01:19:12.925Z,57.72
2023-04-18T01:21:43.604Z,57.45
2023-04-18T01:24:17.297Z,57.86
2023-04-18T01:26:47.495Z,57.73
2023-04-18T01:29:16.190Z,57.82
2023-04-18T01:31:44.350Z,58.00
2023-04-18T01:34:12.841Z,58.04
2023-04-18T01:36:42.975Z,58.05
2023-04-18T01:39:13.111Z,57.40
2023-04-18T01:41:42.588Z,57.76
2023-04-18T01:44:11.776Z,58.41
2023-04-18T01:46:40.804Z,59.16
2023-04-18T01:49:09.499Z,59.30
2023-04-18T01:51:38.861Z,58.74
2023-04-18T01:54:07.156Z,58.18
2023-04-18T01:56:35.204Z,58.22
2023-04-18T01:59:05.258Z,58.38
2023-04-18T02:01:33.333Z,58.25
2023-04-18T02:04:01.700Z,58.68
2023-04-18T02:06:29.755Z,59.07
2023-04-18T02:08:57.965Z,59.04
2023-04-18T02:11:26.357Z,59.10
2023-04-18T02:13:54.664Z,58.81
2023-04-18T02:16:24.101Z,59.28
2023-04-18T02:18:52.791Z,58.82
2023-04-18T02:21:21.808Z,59.31
2023-04-18T02:23:50.925Z,59.24
2023-04-18T02:26:18.943Z,58.93
2023-04-18T02:28:47.201Z,58.51
2023-04-18T02:31:15.717Z,58.63
2023-04-18T02:33:47.095Z,59.13
2023-04-18T02:36:15.081Z,59.23
2023-04-18T02:38:44.890Z,59.12
2023-04-18T02:41:17.247Z,59.52
2023-04-18T02:43:45.525Z,59.93
2023-04-18T02:46:15.560Z,59.52
2023-04-18T02:48:47.499Z,59.44
2023-04-18T02:51:17.171Z,59.47
2023-04-18T02:53:45.501Z,59.31
2023-04-18T02:56:16.791Z,59.50
2023-04-18T02:59:05.056Z,59.84
2023-04-18T03:01:56.192Z,60.32
2023-04-18T03:04:26.782Z,60.02
2023-04-18T03:07:01.253Z,59.97
2023-04-18T03:09:32.832Z,60.30
2023-04-18T03:12:06.538Z,60.01
2023-04-18T03:14:37.946Z,60.75
2023-04-18T03:17:06.790Z,60.97
2023-04-18T03:19:43.088Z,61.83
2023-04-18T03:22:14.879Z,62.67
2023-04-18T03:24:50.029Z,61.68
2023-04-18T03:27:19.318Z,61.27
2023-04-18T03:29:48.734Z,62.42
2023-04-18T03:32:17.236Z,62.29
2023-04-18T03:34:47.302Z,61.65
2023-04-18T03:37:15.382Z,62.37
2023-04-18T03:39:49.491Z,62.84
2023-04-18T03:42:17.965Z,61.87
2023-04-18T03:44:46.353Z,62.44
2023-04-18T03:47:15.447Z,62.35
2023-04-18T03:49:47.374Z,63.38
2023-04-18T03:52:16.203Z,63.64
2023-04-18T03:54:44.634Z,62.63
2023-04-18T03:57:13.591Z,63.34
2023-04-18T03:59:42.781Z,62.93
2023-04-18T04:02:12.593Z,62.33
2023-04-18T04:04:41.084Z,62.27
2023-04-18T04:07:13.161Z,62.25
2023-04-18T04:09:41.434Z,62.55
2023-04-18T04:12:09.443Z,63.04
2023-04-18T04:14:37.886Z,63.45
2023-04-18T04:17:06.664Z,63.55
2023-04-18T04:19:35.756Z,63.75
2023-04-18T04:22:10.393Z,64.42
2023-04-18T04:24:40.420Z,64.81
2023-04-18T04:27:08.716Z,65.12
2023-04-18T04:29:39.297Z,64.64
2023-04-18T04:32:08.364Z,65.24
2023-04-18T04:34:41.187Z,65.74
2023-04-18T04:37:13.867Z,65.58
2023-04-18T04:39:53.769Z,65.99
2023-04-18T04:42:38.748Z,66.11
2023-04-18T04:45:13.761Z,66.63
2023-04-18T04:47:41.963Z,66.30
2023-04-18T04:50:14.579Z,66.20
2023-04-18T04:52:42.851Z,66.58
2023-04-18T04:55:12.576Z,66.48
2023-04-18T04:57:42.411Z,66.06
2023-04-18T05:00:31.650Z,66.08
2023-04-18T05:02:59.844Z,66.70
2023-04-18T05:05:28.912Z,65.56
2023-04-18T05:07:56.991Z,65.85
2023-04-18T05:10:26.602Z,65.90
2023-04-18T05:12:54.584Z,66.45
2023-04-18T05:15:23.632Z,66.75
2023-04-18T05:17:51.718Z,66.13
2023-04-18T05:20:20.055Z,65.66
2023-04-18T05:22:48.173Z,65.92
2023-04-18T05:25:16.656Z,65.07
2023-04-18T05:27:46.242Z,65.22
2023-04-18T05:30:14.924Z,65.48
2023-04-18T05:32:43.124Z,65.04
2023-04-18T05:35:11.705Z,65.02
2023-04-18T05:37:39.693Z,64.66
2023-04-18T05:40:09.846Z,64.84
2023-04-18T05:42:37.818Z,64.68
2023-04-18T05:45:08.657Z,65.68
2023-04-18T05:47:36.662Z,66.25
2023-04-18T05:50:05.709Z,65.77
2023-04-18T05:52:33.974Z,65.70
2023-04-18T05:55:02.221Z,66.14
2023-04-18T05:57:30.214Z,66.90
2023-04-18T05:59:58.706Z,66.66
2023-04-18T06:02:28.163Z,65.79
2023-04-18T06:04:57.533Z,64.67
2023-04-18T06:07:26.064Z,65.16
2023-04-18T06:09:54.384Z,65.95
2023-04-18T06:12:22.340Z,65.19
2023-04-18T06:14:50.764Z,65.20
2023-04-18T06:17:19.172Z,65.74
2023-04-18T06:19:48.990Z,65.55
2023-04-18T06:22:17.046Z,65.90
2023-04-18T06:24:45.745Z,65.73
2023-04-18T06:27:27.781Z,65.86
2023-04-18T06:29:59.220Z,66.27
2023-04-18T06:32:27.297Z,66.34
2023-04-18T06:34:56.871Z,66.21
2023-04-18T06:37:25.170Z,66.59
2023-04-18T06:39:53.482Z,66.25
2023-04-18T06:42:22.597Z,66.40
2023-04-18T06:44:51.190Z,66.52
2023-04-18T06:47:19.391Z,67.03
2023-04-18T06:49:48.143Z,67.03
2023-04-18T06:52:17.513Z,66.48
2023-04-18T06:54:45.734Z,66.56
2023-04-18T06:57:14.032Z,66.85
2023-04-18T06:59:42.342Z,66.72
2023-04-18T07:02:10.389Z,66.20
2023-04-18T07:04:38.822Z,66.48
2023-04-18T07:07:06.989Z,66.94
2023-04-18T07:09:36.554Z,66.86
2023-04-18T07:12:04.694Z,66.17
2023-04-18T07:14:34.226Z,66.61
2023-04-18T07:17:02.582Z,67.15
2023-04-18T07:19:30.964Z,67.58
2023-04-18T07:21:59.015Z,67.03
2023-04-18T07:24:27.290Z,65.93
2023-04-18T07:26:56.709Z,66.05
2023-04-18T07:29:25.007Z,65.96
2023-04-18T07:31:53.013Z,74.57
2023-04-18T07:34:21.968Z,70.11
2023-04-18T07:36:50.224Z,67.93
2023-04-18T07:39:18.490Z,65.47
2023-04-18T07:41:46.674Z,64.53
2023-04-18T07:44:16.396Z,65.42
2023-04-18T07:46:44.599Z,65.17
2023-04-18T07:49:13.231Z,64.19
2023-04-18T07:51:41.696Z,64.80
2023-04-18T07:54:11.023Z,65.22
2023-04-18T07:56:39.019Z,65.80
2023-04-18T07:59:07.240Z,66.04
2023-04-18T08:01:36.597Z,66.56
2023-04-18T08:04:05.137Z,65.09
2023-04-18T08:06:34.559Z,65.35
2023-04-18T08:09:05.702Z,64.80
2023-04-18T08:11:33.934Z,65.19
2023-04-18T08:14:02.447Z,64.12
2023-04-18T08:16:30.546Z,64.46
2023-04-18T08:19:00.138Z,64.13
2023-04-18T08:21:28.178Z,63.74
2023-04-18T08:23:56.955Z,63.90
2023-04-18T08:26:24.973Z,63.58
2023-04-18T08:28:53.198Z,64.39
2023-04-18T08:31:21.312Z,64.79
2023-04-18T08:33:49.690Z,64.93
2023-04-18T08:36:19.055Z,65.01
2023-04-18T08:38:47.484Z,64.68
2023-04-18T08:41:16.682Z,64.55
2023-04-18T08:43:48.692Z,63.64
2023-04-18T08:46:17.451Z,63.52
2023-04-18T08:48:47.253Z,63.14
2023-04-18T08:51:15.366Z,64.01
2023-04-18T08:53:45.294Z,64.28
2023-04-18T08:56:14.634Z,63.56
2023-04-18T08:58:45.072Z,63.13
2023-04-18T09:01:13.725Z,62.85
2023-04-18T09:03:44.016Z,62.28
2023-04-18T09:06:13.886Z,62.77
2023-04-18T09:08:43.664Z,62.28
2023-04-18T09:11:29.750Z,61.61
2023-04-18T09:13:58.631Z,61.48
2023-04-18T09:16:29.167Z,60.45
2023-04-18T09:19:11.931Z,60.17
2023-04-18T09:21:41.771Z,60.11
2023-04-18T09:24:24.000Z,61.35
2023-04-18T09:26:55.832Z,60.74
2023-04-18T09:29:24.608Z,61.16
2023-04-18T09:31:57.501Z,61.94
2023-04-18T09:34:26.349Z,61.74
2023-04-18T09:37:08.225Z,61.66
2023-04-18T09:39:37.979Z,61.16
2023-04-18T09:42:07.890Z,60.89
2023-04-18T09:44:36.137Z,60.76
2023-04-18T09:47:04.182Z,60.69
2023-04-18T09:49:32.448Z,61.07
2023-04-18T09:52:00.711Z,60.23
2023-04-18T09:54:30.856Z,60.20
2023-04-18T09:56:59.180Z,60.25
2023-04-18T09:59:38.718Z,60.07
2023-04-18T10:02:07.956Z,59.20
2023-04-18T10:04:37.042Z,58.58
2023-04-18T10:07:05.798Z,58.14
2023-04-18T10:09:35.333Z,58.49
2023-04-18T10:12:03.807Z,58.33
2023-04-18T10:14:34.369Z,58.96
2023-04-18T10:17:02.501Z,58.13
2023-04-18T10:19:31.752Z,57.61
2023-04-18T10:22:01.622Z,57.21
2023-04-18T10:24:49.935Z,56.89
2023-04-18T10:27:19.405Z,57.78
2023-04-18T10:29:50.579Z,57.20
2023-04-18T10:32:20.339Z,57.98
2023-04-18T10:34:48.698Z,56.96
2023-04-18T10:37:18.745Z,57.24
2023-04-18T10:39:57.160Z,56.57
2023-04-18T10:42:58.789Z,55.92
2023-04-18T10:45:30.892Z,55.71
2023-04-18T10:48:24.629Z,55.90
2023-04-18T10:51:14.958Z,55.56
2023-04-18T10:53:48.398Z,54.84
2023-04-18T10:56:17.216Z,55.45
2023-04-18T10:58:49.616Z,54.61
2023-04-18T11:01:31.038Z,53.08
2023-04-18T11:04:00.901Z,53.04
2023-04-18T11:06:31.108Z,53.31
2023-04-18T11:09:10.881Z,51.63
2023-04-18T11:11:39.211Z,51.88
2023-04-18T11:14:07.208Z,52.83
2023-04-18T11:16:37.370Z,53.05
2023-04-18T11:19:20.072Z,53.58
2023-04-18T11:21:48.448Z,53.79
2023-04-18T11:24:23.673Z,53.09
2023-04-18T11:26:55.591Z,53.98
2023-04-18T11:29:23.846Z,54.54
2023-04-18T11:31:56.886Z,54.53
2023-04-18T11:34:30.122Z,53.33
2023-04-18T11:36:58.652Z,53.69
2023-04-18T11:39:26.940Z,54.64
2023-04-18T11:41:57.132Z,54.63
2023-04-18T11:44:25.800Z,54.34
2023-04-18T11:46:55.739Z,55.05
2023-04-18T11:49:27.917Z,54.20
2023-04-18T11:51:56.555Z,54.96
2023-04-18T11:54:37.876Z,54.59
2023-04-18T11:57:06.927Z,55.55
2023-04-18T11:59:36.261Z,55.45
2023-04-18T12:02:16.331Z,54.41
2023-04-18T12:04:53.878Z,54.48
2023-04-18T12:07:37.039Z,54.16
2023-04-18T12:10:07.475Z,54.18
2023-04-18T12:12:36.847Z,55.32
2023-04-18T12:15:08.858Z,54.36
2023-04-18T12:17:39.278Z,55.52
2023-04-18T12:20:09.977Z,55.71
2023-04-18T12:22:39.909Z,56.06
2023-04-18T12:25:26.706Z,55.32
2023-04-18T12:27:58.736Z,55.18
2023-04-18T12:30:28.729Z,55.47
2023-04-18T12:32:59.823Z,55.79
2023-04-18T12:35:28.556Z,55.81
2023-04-18T12:37:57.768Z,55.48
2023-04-18T12:40:26.710Z,55.28
2023-04-18T12:42:55.768Z,55.44
2023-04-18T12:45:24.507Z,54.86
2023-04-18T12:47:53.423Z,54.28
2023-04-18T12:50:24.171Z,53.13
2023-04-18T12:52:53.439Z,53.71
2023-04-18T12:55:22.590Z,53.91
2023-04-18T12:57:54.109Z,53.38
2023-04-18T13:00:23.613Z,53.51
2023-04-18T13:02:52.694Z,54.33
2023-04-18T13:05:25.002Z,53.85
2023-04-18T13:08:08.698Z,53.25
2023-04-18T13:10:42.490Z,53.83
2023-04-18T13:13:10.832Z,53.78
2023-04-18T13:15:39.157Z,53.43
2023-04-18T13:18:08.025Z,52.43
2023-04-18T13:20:37.645Z,52.54
2023-04-18T13:23:06.159Z,52.66
2023-04-18T13:25:34.265Z,52.38
2023-04-18T13:28:02.567Z,52.53
2023-04-18T13:30:31.664Z,52.34
2023-04-18T13:33:00.068Z,53.51
2023-04-18T13:35:28.182Z,52.71
2023-04-18T13:37:58.092Z,53.50
2023-04-18T13:40:26.396Z,54.12
2023-04-18T13:42:54.781Z,53.45
2023-04-18T13:45:42.705Z,53.65
2023-04-18T13:48:11.098Z,53.51
2023-04-18T13:50:39.210Z,53.77
2023-04-18T13:53:08.976Z,52.89
2023-04-18T13:55:37.154Z,53.48
2023-04-18T13:58:05.957Z,53.57
2023-04-18T14:00:35.125Z,53.81
2023-04-18T14:03:03.480Z,53.59
2023-04-18T14:05:32.590Z,52.60
2023-04-18T14:08:03.671Z,52.54
2023-04-18T14:10:33.089Z,53.55
2023-04-18T14:13:01.842Z,52.57
2023-04-18T14:15:30.577Z,53.63
2023-04-18T14:17:59.257Z,52.87
2023-04-18T14:20:34.054Z,52.07
2023-04-18T14:23:02.437Z,52.83
2023-04-18T14:25:30.765Z,53.09
2023-04-18T14:28:08.669Z,50.18
2023-04-18T14:30:36.906Z,47.73
2023-04-18T14:33:05.665Z,46.78
2023-04-18T14:35:34.221Z,47.69
2023-04-18T14:38:02.570Z,48.82
2023-04-18T14:40:32.748Z,48.72
2023-04-18T14:43:01.434Z,49.33
2023-04-18T14:45:32.992Z,48.61
2023-04-18T14:48:01.468Z,45.13
2023-04-18T14:50:29.510Z,45.38
2023-04-18T14:52:57.937Z,45.16
2023-04-18T14:55:26.658Z,45.88
2023-04-18T14:57:55.413Z,46.54
2023-04-18T15:00:23.782Z,45.78
2023-04-18T15:02:53.582Z,46.30
2023-04-18T15:05:23.650Z,47.30
2023-04-18T15:07:52.671Z,47.61
2023-04-18T15:10:22.343Z,48.13
2023-04-18T15:12:52.281Z,48.53
2023-04-18T15:15:20.876Z,48.53
2023-04-18T15:17:49.263Z,45.86
2023-04-18T15:20:18.731Z,44.12
2023-04-18T15:22:47.014Z,42.79
2023-04-18T15:25:16.294Z,37.54
2023-04-18T15:27:44.582Z,36.90
2023-04-18T15:30:13.226Z,35.43
2023-04-18T15:32:41.989Z,33.22
2023-04-18T15:35:10.604Z,31.27
2023-04-18T15:37:40.396Z,30.58
2023-04-18T15:40:11.186Z,32.76
2023-04-18T15:42:40.060Z,33.76
2023-04-18T15:45:08.829Z,35.50
2023-04-18T15:47:37.240Z,36.89
2023-04-18T15:50:06.974Z,38.32
2023-04-18T15:52:36.051Z,39.98
2023-04-18T15:55:06.232Z,41.53
2023-04-18T15:57:34.885Z,41.52
2023-04-18T16:00:04.212Z,42.25
2023-04-18T16:02:33.598Z,42.62
2023-04-18T16:05:01.658Z,41.78
2023-04-18T16:07:30.040Z,42.21
2023-04-18T16:09:58.150Z,43.09
2023-04-18T16:12:29.359Z,43.01
2023-04-18T16:14:57.414Z,42.63
2023-04-18T16:17:25.661Z,42.36
2023-04-18T16:19:54.166Z,43.04
2023-04-18T16:22:22.695Z,43.69
2023-04-18T16:24:51.195Z,40.94
2023-04-18T16:27:19.528Z,38.42
2023-04-18T16:29:49.435Z,38.46
2023-04-18T16:32:17.655Z,38.91
2023-04-18T16:34:45.910Z,40.06
2023-04-18T16:37:14.325Z,40.97
2023-04-18T16:39:42.446Z,41.15
2023-04-18T16:42:11.053Z,42.32
2023-04-18T16:44:40.279Z,42.91
2023-04-18T16:47:10.143Z,42.94
2023-04-18T16:49:38.719Z,42.64
2023-04-18T16:52:06.976Z,43.02
2023-04-18T16:54:35.047Z,42.48
2023-04-18T16:57:03.427Z,43.11
2023-04-18T16:59:31.737Z,43.48
2023-04-18T17:02:00.311Z,44.42
2023-04-18T17:04:30.013Z,44.31
2023-04-18T17:06:59.034Z,45.03
2023-04-18T17:09:27.450Z,45.53
2023-04-18T17:11:55.920Z,46.26
2023-04-18T17:14:23.938Z,47.30
2023-04-18T17:16:53.760Z,47.47
2023-04-18T17:19:23.720Z,47.84
2023-04-18T17:21:53.398Z,48.01
2023-04-18T17:24:22.435Z,47.55
2023-04-18T17:26:51.221Z,48.30
2023-04-18T17:29:19.424Z,48.40
2023-04-18T17:31:48.162Z,48.57
2023-04-18T17:34:16.268Z,48.91
2023-04-18T17:36:44.643Z,49.40
2023-04-18T17:39:16.413Z,49.74
2023-04-18T17:41:46.099Z,49.83
2023-04-18T17:44:14.079Z,50.35
2023-04-18T17:46:42.312Z,50.78
2023-04-18T17:49:11.202Z,51.40
2023-04-18T17:51:39.506Z,51.30
2023-04-18T17:54:08.069Z,50.79
2023-04-18T17:56:37.662Z,51.84
2023-04-18T17:59:07.329Z,51.71
2023-04-18T18:01:36.253Z,52.14
2023-04-18T18:04:04.401Z,52.55
2023-04-18T18:06:32.700Z,53.06
2023-04-18T18:09:00.726Z,53.27
2023-04-18T18:11:29.028Z,53.12
2023-04-18T18:13:58.693Z,52.98
2023-04-18T18:16:27.004Z,53.46
2023-04-18T18:18:55.153Z,53.91
2023-04-18T18:21:23.513Z,54.17
2023-04-18T18:23:51.494Z,54.47
2023-04-18T18:26:19.705Z,54.37
2023-04-18T18:28:47.746Z,55.00
2023-04-18T18:31:19.609Z,55.48
2023-04-18T18:33:47.613Z,55.40
2023-04-18T18:36:15.902Z,55.41
2023-04-18T18:38:43.950Z,56.15
2023-04-18T18:41:12.181Z,56.48
2023-04-18T18:43:40.229Z,55.93
2023-04-18T18:46:08.898Z,56.61
2023-04-18T18:48:39.072Z,56.50
2023-04-18T18:51:07.310Z,56.72
2023-04-18T18:53:36.460Z,57.16
2023-04-18T18:56:06.070Z,57.34
2023-04-18T18:58:34.049Z,56.94
2023-04-18T19:01:03.242Z,57.46
2023-04-18T19:03:31.436Z,57.31
2023-04-18T19:06:03.761Z,58.26
2023-04-18T19:08:31.758Z,58.61
2023-04-18T19:11:00.045Z,58.41
2023-04-18T19:13:28.113Z,58.38
2023-04-18T19:15:56.470Z,58.07
2023-04-18T19:18:24.604Z,57.99
2023-04-18T19:20:52.810Z,58.38
2023-04-18T19:23:23.779Z,58.69
2023-04-18T19:25:52.759Z,59.10
2023-04-18T19:28:22.507Z,59.72
2023-04-18T19:30:50.996Z,59.38
2023-04-18T19:33:19.688Z,59.43
2023-04-18T19:35:47.908Z,59.38
2023-04-18T19:38:15.924Z,59.24
2023-04-18T19:40:45.505Z,59.28
2023-04-18T19:43:13.643Z,59.58
2023-04-18T19:45:42.035Z,59.72
2023-04-18T19:48:10.071Z,60.00
2023-04-18T19:50:40.134Z,60.03
2023-04-18T19:53:08.501Z,60.82
2023-04-18T19:55:38.363Z,60.66
2023-04-18T19:58:07.740Z,60.73
2023-04-18T20:00:36.159Z,60.88
2023-04-18T20:03:04.712Z,60.21
2023-04-18T20:05:33.115Z,61.21
2023-04-18T20:08:01.122Z,61.05
2023-04-18T20:10:29.814Z,61.16
2023-04-18T20:12:57.779Z,60.65
2023-04-18T20:17:58.434Z,60.84
2023-04-18T20:20:26.879Z,61.34
2023-04-18T20:22:56.731Z,62.11
2023-04-18T20:25:24.950Z,61.64
2023-04-18T20:27:52.973Z,61.39
2023-04-18T20:30:21.938Z,61.16
2023-04-18T20:32:51.484Z,60.79
2023-04-18T20:35:22.050Z,60.87
2023-04-18T20:37:50.151Z,61.04
2023-04-18T20:40:18.613Z,61.84
2023-04-18T20:42:46.734Z,61.97
2023-04-18T20:45:15.137Z,61.88
2023-04-18T20:47:44.332Z,62.37
2023-04-18T20:50:16.091Z,62.54
2023-04-18T20:52:44.136Z,62.13
2023-04-18T20:55:12.953Z,62.71
2023-04-18T20:57:41.028Z,62.58
2023-04-18T21:00:10.576Z,62.66
2023-04-18T21:02:38.806Z,62.50
2023-04-18T21:05:07.848Z,62.45
2023-04-18T21:07:37.722Z,62.91
2023-04-18T21:10:06.778Z,63.07
2023-04-18T21:12:35.359Z,63.03
2023-04-18T21:15:05.421Z,62.84
2023-04-18T21:17:33.455Z,62.72
2023-04-18T21:20:02.212Z,62.50
2023-04-18T21:22:32.282Z,62.44
2023-04-18T21:25:01.868Z,62.73
2023-04-18T21:27:30.887Z,62.55
2023-04-18T21:29:59.184Z,66.49
2023-04-18T21:32:27.250Z,64.24
2023-04-18T21:34:56.247Z,62.87
2023-04-18T21:37:25.027Z,61.89
2023-04-18T21:39:53.262Z,62.35
2023-04-18T21:42:22.995Z,62.19
2023-04-18T21:44:51.381Z,63.06
2023-04-18T21:47:19.486Z,63.08
2023-04-18T21:49:47.779Z,63.28
2023-04-18T21:52:15.773Z,63.68
2023-04-18T21:54:44.013Z,63.84
2023-04-18T21:57:12.013Z,64.34
2023-04-18T21:59:41.563Z,64.57
2023-04-18T22:02:09.600Z,64.52
2023-04-18T22:04:37.980Z,64.42
2023-04-18T22:07:06.577Z,64.29
2023-04-18T22:09:36.129Z,64.07
2023-04-18T22:12:04.446Z,64.14
2023-04-18T22:14:32.999Z,64.39
2023-04-18T22:17:03.091Z,64.56
2023-04-18T22:19:31.381Z,64.72
2023-04-18T22:21:59.697Z,64.84
2023-04-18T22:24:27.894Z,65.06
2023-04-18T22:26:55.835Z,65.29
2023-04-18T22:29:24.075Z,65.08
2023-04-18T22:31:52.033Z,64.94
2023-04-18T22:34:21.636Z,64.95
2023-04-18T22:36:49.668Z,65.28
2023-04-18T22:39:17.892Z,65.15
2023-04-18T22:41:45.848Z,65.03
2023-04-18T22:44:14.392Z,65.36
2023-04-18T22:46:42.869Z,64.71
2023-04-18T22:49:11.180Z,65.39
2023-04-18T22:51:40.527Z,65.42
2023-04-18T22:54:08.772Z,65.85
2023-04-18T22:56:36.750Z,65.71
2023-04-18T22:59:05.010Z,66.16
2023-04-18T23:01:33.006Z,65.98
2023-04-18T23:04:01.544Z,65.85
2023-04-18T23:06:29.897Z,65.95
2023-04-18T23:08:59.609Z,66.13
2023-04-18T23:11:27.548Z,66.26
2023-04-18T23:13:55.759Z,66.13
2023-04-18T23:16:23.827Z,66.78
2023-04-18T23:18:52.131Z,66.88
2023-04-18T23:21:20.234Z,67.16
2023-04-18T23:23:48.471Z,67.31
2023-04-18T23:26:17.873Z,66.56
2023-04-18T23:28:46.244Z,67.09
2023-04-18T23:31:14.350Z,67.02
2023-04-18T23:33:42.592Z,66.58
2023-04-18T23:36:11.654Z,66.76
2023-04-18T23:38:40.410Z,67.49
2023-04-18T23:41:08.495Z,67.30
2023-04-18T23:43:38.144Z,67.34
2023-04-18T23:46:06.404Z,67.78
2023-04-18T23:48:34.650Z,67.65
2023-04-18T23:51:02.664Z,67.08
2023-04-18T23:53:30.874Z,67.33
2023-04-18T23:55:58.897Z,67.51
2023-04-18T23:58:27.245Z,67.44
